sensor_id;sensor_type;location;lat;lon;timestamp;P1;durP1;ratioP1;P2;durP2;ratioP2
26742;SDS011;14341;51.256;22.478;2022-12-11T00:00:40;100.57;;;38.70;;
26742;SDS011;14341;51.256;22.478;2022-12-11T00:03:44;93.85;;;37.55;;
26742;SDS011;14341;51.256;22.478;2022-12-11T00:06:47;90.80;;;37.80;;
26742;SDS011;14341;51.256;22.478;2022-12-11T00:09:52;95.70;;;39.42;;
26742;SDS011;14341;51.256;22.478;2022-12-11T00:12:55;100.60;;;41.58;;
26742;SDS011;14341;51.256;22.478;2022-12-11T00:15:59;100.13;;;39.80;;
26742;SDS011;14341;51.256;22.478;2022-12-11T00:19:02;99.70;;;41.80;;
26742;SDS011;14341;51.256;22.478;2022-12-11T00:22:05;98.90;;;39.97;;
26742;SDS011;14341;51.256;22.478;2022-12-11T00:25:11;100.30;;;40.78;;
26742;SDS011;14341;51.256;22.478;2022-12-11T00:28:14;99.97;;;39.92;;
26742;SDS011;14341;51.256;22.478;2022-12-11T00:31:21;97.53;;;40.38;;
26742;SDS011;14341;51.256;22.478;2022-12-11T00:34:25;100.32;;;40.03;;
26742;SDS011;14341;51.256;22.478;2022-12-11T00:37:28;88.65;;;38.72;;
26742;SDS011;14341;51.256;22.478;2022-12-11T00:40:33;88.35;;;37.78;;
26742;SDS011;14341;51.256;22.478;2022-12-11T00:43:37;83.68;;;37.13;;
26742;SDS011;14341;51.256;22.478;2022-12-11T00:46:40;77.85;;;34.22;;
26742;SDS011;14341;51.256;22.478;2022-12-11T00:49:44;87.50;;;35.97;;
26742;SDS011;14341;51.256;22.478;2022-12-11T00:52:50;80.78;;;34.88;;
26742;SDS011;14341;51.256;22.478;2022-12-11T00:55:55;83.03;;;34.42;;
26742;SDS011;14341;51.256;22.478;2022-12-11T00:58:58;82.22;;;35.63;;
26742;SDS011;14341;51.256;22.478;2022-12-11T01:02:01;79.85;;;35.92;;
26742;SDS011;14341;51.256;22.478;2022-12-11T01:05:05;77.95;;;34.55;;
26742;SDS011;14341;51.256;22.478;2022-12-11T01:08:09;81.03;;;34.92;;
26742;SDS011;14341;51.256;22.478;2022-12-11T01:11:15;76.30;;;33.42;;
26742;SDS011;14341;51.256;22.478;2022-12-11T01:14:18;79.20;;;33.47;;
26742;SDS011;14341;51.256;22.478;2022-12-11T01:17:22;73.97;;;32.28;;
26742;SDS011;14341;51.256;22.478;2022-12-11T01:20:26;78.15;;;33.90;;
26742;SDS011;14341;51.256;22.478;2022-12-11T01:23:32;72.90;;;32.30;;
26742;SDS011;14341;51.256;22.478;2022-12-11T01:26:37;64.80;;;30.67;;
26742;SDS011;14341;51.256;22.478;2022-12-11T01:29:40;78.90;;;32.20;;
26742;SDS011;14341;51.256;22.478;2022-12-11T01:32:44;69.15;;;33.40;;
26742;SDS011;14341;51.256;22.478;2022-12-11T01:35:49;72.68;;;33.60;;
26742;SDS011;14341;51.256;22.478;2022-12-11T01:38:52;65.35;;;31.08;;
26742;SDS011;14341;51.256;22.478;2022-12-11T01:41:57;66.30;;;32.38;;
26742;SDS011;14341;51.256;22.478;2022-12-11T01:48:28;59.33;;;29.98;;
26742;SDS011;14341;51.256;22.478;2022-12-11T01:51:37;58.20;;;28.52;;
26742;SDS011;14341;51.256;22.478;2022-12-11T01:54:44;57.35;;;27.70;;
26742;SDS011;14341;51.256;22.478;2022-12-11T01:57:50;53.55;;;28.02;;
26742;SDS011;14341;51.256;22.478;2022-12-11T02:04:11;53.67;;;27.90;;
26742;SDS011;14341;51.256;22.478;2022-12-11T02:07:15;56.67;;;27.20;;
26742;SDS011;14341;51.256;22.478;2022-12-11T02:10:19;55.58;;;29.20;;
26742;SDS011;14341;51.256;22.478;2022-12-11T02:13:27;53.47;;;28.23;;
26742;SDS011;14341;51.256;22.478;2022-12-11T02:16:37;52.70;;;27.38;;
26742;SDS011;14341;51.256;22.478;2022-12-11T02:19:54;51.95;;;26.85;;
26742;SDS011;14341;51.256;22.478;2022-12-11T02:23:24;54.30;;;27.75;;
26742;SDS011;14341;51.256;22.478;2022-12-11T02:26:50;49.10;;;26.67;;
26742;SDS011;14341;51.256;22.478;2022-12-11T02:30:06;48.78;;;26.83;;
26742;SDS011;14341;51.256;22.478;2022-12-11T02:33:11;54.55;;;28.75;;
26742;SDS011;14341;51.256;22.478;2022-12-11T02:36:16;50.55;;;26.48;;
26742;SDS011;14341;51.256;22.478;2022-12-11T02:39:20;48.83;;;26.17;;
26742;SDS011;14341;51.256;22.478;2022-12-11T02:42:25;52.90;;;26.52;;
26742;SDS011;14341;51.256;22.478;2022-12-11T02:45:34;50.05;;;25.15;;
26742;SDS011;14341;51.256;22.478;2022-12-11T02:48:39;47.90;;;25.52;;
26742;SDS011;14341;51.256;22.478;2022-12-11T02:51:44;48.65;;;25.88;;
26742;SDS011;14341;51.256;22.478;2022-12-11T02:54:47;46.95;;;26.30;;
26742;SDS011;14341;51.256;22.478;2022-12-11T02:57:55;47.17;;;25.88;;
26742;SDS011;14341;51.256;22.478;2022-12-11T03:01:05;52.65;;;26.20;;
26742;SDS011;14341;51.256;22.478;2022-12-11T03:04:08;53.28;;;26.35;;
26742;SDS011;14341;51.256;22.478;2022-12-11T03:07:12;49.45;;;26.13;;
26742;SDS011;14341;51.256;22.478;2022-12-11T03:10:18;52.38;;;26.73;;
26742;SDS011;14341;51.256;22.478;2022-12-11T03:13:22;51.03;;;26.70;;
26742;SDS011;14341;51.256;22.478;2022-12-11T03:16:33;53.42;;;26.65;;
26742;SDS011;14341;51.256;22.478;2022-12-11T03:19:39;50.10;;;26.13;;
26742;SDS011;14341;51.256;22.478;2022-12-11T03:22:45;54.95;;;26.13;;
26742;SDS011;14341;51.256;22.478;2022-12-11T03:25:52;52.00;;;25.98;;
26742;SDS011;14341;51.256;22.478;2022-12-11T03:28:58;48.80;;;25.83;;
26742;SDS011;14341;51.256;22.478;2022-12-11T03:32:06;49.10;;;26.00;;
26742;SDS011;14341;51.256;22.478;2022-12-11T03:35:15;52.40;;;26.45;;
26742;SDS011;14341;51.256;22.478;2022-12-11T03:38:23;50.33;;;25.77;;
26742;SDS011;14341;51.256;22.478;2022-12-11T03:41:29;47.95;;;26.45;;
26742;SDS011;14341;51.256;22.478;2022-12-11T03:44:35;49.20;;;26.80;;
26742;SDS011;14341;51.256;22.478;2022-12-11T03:47:41;53.53;;;27.73;;
26742;SDS011;14341;51.256;22.478;2022-12-11T03:50:46;51.72;;;27.80;;
26742;SDS011;14341;51.256;22.478;2022-12-11T03:53:50;55.10;;;27.98;;
26742;SDS011;14341;51.256;22.478;2022-12-11T03:56:55;56.85;;;27.85;;
26742;SDS011;14341;51.256;22.478;2022-12-11T04:00:00;56.28;;;27.23;;
26742;SDS011;14341;51.256;22.478;2022-12-11T04:03:18;55.90;;;28.35;;
26742;SDS011;14341;51.256;22.478;2022-12-11T04:06:22;54.53;;;27.80;;
26742;SDS011;14341;51.256;22.478;2022-12-11T04:09:26;56.10;;;29.35;;
26742;SDS011;14341;51.256;22.478;2022-12-11T04:12:29;51.80;;;27.35;;
26742;SDS011;14341;51.256;22.478;2022-12-11T04:15:32;57.60;;;27.70;;
26742;SDS011;14341;51.256;22.478;2022-12-11T04:18:37;55.03;;;28.13;;
26742;SDS011;14341;51.256;22.478;2022-12-11T04:21:58;51.70;;;26.77;;
26742;SDS011;14341;51.256;22.478;2022-12-11T04:25:18;53.58;;;27.77;;
26742;SDS011;14341;51.256;22.478;2022-12-11T04:28:22;55.40;;;27.80;;
26742;SDS011;14341;51.256;22.478;2022-12-11T04:31:25;51.88;;;26.38;;
26742;SDS011;14341;51.256;22.478;2022-12-11T04:34:31;49.60;;;26.45;;
26742;SDS011;14341;51.256;22.478;2022-12-11T04:37:35;49.55;;;27.05;;
26742;SDS011;14341;51.256;22.478;2022-12-11T04:40:38;50.55;;;25.85;;
26742;SDS011;14341;51.256;22.478;2022-12-11T04:43:42;52.72;;;25.83;;
26742;SDS011;14341;51.256;22.478;2022-12-11T04:46:46;50.47;;;25.30;;
26742;SDS011;14341;51.256;22.478;2022-12-11T04:49:50;47.92;;;26.55;;
26742;SDS011;14341;51.256;22.478;2022-12-11T04:52:54;48.70;;;26.45;;
26742;SDS011;14341;51.256;22.478;2022-12-11T04:55:57;52.38;;;27.80;;
26742;SDS011;14341;51.256;22.478;2022-12-11T04:59:01;54.53;;;27.38;;
26742;SDS011;14341;51.256;22.478;2022-12-11T05:02:04;50.63;;;27.17;;
26742;SDS011;14341;51.256;22.478;2022-12-11T05:05:09;54.20;;;27.20;;
26742;SDS011;14341;51.256;22.478;2022-12-11T05:08:14;48.53;;;25.55;;
26742;SDS011;14341;51.256;22.478;2022-12-11T05:11:17;45.90;;;26.55;;
26742;SDS011;14341;51.256;22.478;2022-12-11T05:14:20;56.83;;;28.90;;
26742;SDS011;14341;51.256;22.478;2022-12-11T05:17:24;55.83;;;27.10;;
26742;SDS011;14341;51.256;22.478;2022-12-11T05:20:28;51.72;;;27.70;;
26742;SDS011;14341;51.256;22.478;2022-12-11T05:23:33;53.63;;;26.58;;
26742;SDS011;14341;51.256;22.478;2022-12-11T05:26:36;55.55;;;27.20;;
26742;SDS011;14341;51.256;22.478;2022-12-11T05:29:39;54.58;;;27.13;;
26742;SDS011;14341;51.256;22.478;2022-12-11T05:32:43;48.95;;;24.45;;
26742;SDS011;14341;51.256;22.478;2022-12-11T05:35:47;49.67;;;24.95;;
26742;SDS011;14341;51.256;22.478;2022-12-11T05:38:51;46.95;;;25.73;;
26742;SDS011;14341;51.256;22.478;2022-12-11T05:41:55;47.17;;;25.02;;
26742;SDS011;14341;51.256;22.478;2022-12-11T05:44:58;53.42;;;25.45;;
26742;SDS011;14341;51.256;22.478;2022-12-11T05:48:01;54.67;;;26.73;;
26742;SDS011;14341;51.256;22.478;2022-12-11T05:51:06;51.63;;;26.67;;
26742;SDS011;14341;51.256;22.478;2022-12-11T05:54:10;50.20;;;25.90;;
26742;SDS011;14341;51.256;22.478;2022-12-11T05:57:14;51.17;;;25.05;;
26742;SDS011;14341;51.256;22.478;2022-12-11T06:00:18;50.55;;;25.40;;
26742;SDS011;14341;51.256;22.478;2022-12-11T06:03:21;51.83;;;24.38;;
26742;SDS011;14341;51.256;22.478;2022-12-11T06:06:26;50.58;;;25.67;;
26742;SDS011;14341;51.256;22.478;2022-12-11T06:09:29;51.08;;;25.60;;
26742;SDS011;14341;51.256;22.478;2022-12-11T06:12:33;53.03;;;26.63;;
26742;SDS011;14341;51.256;22.478;2022-12-11T06:15:36;52.80;;;25.33;;
26742;SDS011;14341;51.256;22.478;2022-12-11T06:18:40;52.20;;;24.73;;
26742;SDS011;14341;51.256;22.478;2022-12-11T06:21:46;46.60;;;25.08;;
26742;SDS011;14341;51.256;22.478;2022-12-11T06:24:50;51.58;;;25.63;;
26742;SDS011;14341;51.256;22.478;2022-12-11T06:27:53;47.67;;;25.00;;
26742;SDS011;14341;51.256;22.478;2022-12-11T06:30:57;47.72;;;24.13;;
26742;SDS011;14341;51.256;22.478;2022-12-11T06:34:01;47.65;;;23.85;;
26742;SDS011;14341;51.256;22.478;2022-12-11T06:37:06;50.78;;;24.83;;
26742;SDS011;14341;51.256;22.478;2022-12-11T06:40:09;41.75;;;23.92;;
26742;SDS011;14341;51.256;22.478;2022-12-11T06:43:13;53.72;;;25.20;;
26742;SDS011;14341;51.256;22.478;2022-12-11T06:46:17;48.85;;;25.05;;
26742;SDS011;14341;51.256;22.478;2022-12-11T06:49:21;49.45;;;24.77;;
26742;SDS011;14341;51.256;22.478;2022-12-11T06:52:26;57.58;;;27.80;;
26742;SDS011;14341;51.256;22.478;2022-12-11T06:55:30;67.38;;;30.92;;
26742;SDS011;14341;51.256;22.478;2022-12-11T06:58:36;56.92;;;28.70;;
26742;SDS011;14341;51.256;22.478;2022-12-11T07:01:40;56.80;;;27.70;;
26742;SDS011;14341;51.256;22.478;2022-12-11T07:04:43;62.50;;;30.25;;
26742;SDS011;14341;51.256;22.478;2022-12-11T07:07:56;55.28;;;28.00;;
26742;SDS011;14341;51.256;22.478;2022-12-11T07:11:03;50.55;;;25.45;;
26742;SDS011;14341;51.256;22.478;2022-12-11T07:14:07;53.13;;;26.45;;
26742;SDS011;14341;51.256;22.478;2022-12-11T07:17:11;51.38;;;26.80;;
26742;SDS011;14341;51.256;22.478;2022-12-11T07:20:15;49.20;;;26.70;;
26742;SDS011;14341;51.256;22.478;2022-12-11T07:23:20;47.25;;;25.58;;
26742;SDS011;14341;51.256;22.478;2022-12-11T07:26:23;53.80;;;26.75;;
26742;SDS011;14341;51.256;22.478;2022-12-11T07:29:26;50.00;;;25.30;;
26742;SDS011;14341;51.256;22.478;2022-12-11T07:32:30;50.35;;;26.30;;
26742;SDS011;14341;51.256;22.478;2022-12-11T07:35:33;47.97;;;25.48;;
26742;SDS011;14341;51.256;22.478;2022-12-11T07:38:38;49.88;;;24.60;;
26742;SDS011;14341;51.256;22.478;2022-12-11T07:41:42;53.08;;;26.77;;
26742;SDS011;14341;51.256;22.478;2022-12-11T07:44:46;49.60;;;26.20;;
26742;SDS011;14341;51.256;22.478;2022-12-11T07:47:50;50.70;;;26.50;;
26742;SDS011;14341;51.256;22.478;2022-12-11T07:50:53;55.78;;;29.63;;
26742;SDS011;14341;51.256;22.478;2022-12-11T07:53:58;51.28;;;26.95;;
26742;SDS011;14341;51.256;22.478;2022-12-11T07:57:03;49.00;;;25.25;;
26742;SDS011;14341;51.256;22.478;2022-12-11T08:00:14;46.10;;;24.75;;
26742;SDS011;14341;51.256;22.478;2022-12-11T08:03:18;45.22;;;23.10;;
26742;SDS011;14341;51.256;22.478;2022-12-11T08:06:24;43.67;;;23.85;;
26742;SDS011;14341;51.256;22.478;2022-12-11T08:09:30;45.42;;;24.33;;
26742;SDS011;14341;51.256;22.478;2022-12-11T08:12:33;43.55;;;22.70;;
26742;SDS011;14341;51.256;22.478;2022-12-11T08:15:37;41.72;;;22.67;;
26742;SDS011;14341;51.256;22.478;2022-12-11T08:18:40;46.25;;;24.13;;
26742;SDS011;14341;51.256;22.478;2022-12-11T08:21:45;42.47;;;22.92;;
26742;SDS011;14341;51.256;22.478;2022-12-11T08:24:50;45.00;;;24.83;;
26742;SDS011;14341;51.256;22.478;2022-12-11T08:27:54;47.65;;;24.33;;
26742;SDS011;14341;51.256;22.478;2022-12-11T08:31:02;44.05;;;24.35;;
26742;SDS011;14341;51.256;22.478;2022-12-11T08:34:06;48.70;;;25.50;;
26742;SDS011;14341;51.256;22.478;2022-12-11T08:37:14;44.30;;;24.05;;
26742;SDS011;14341;51.256;22.478;2022-12-11T08:40:19;41.58;;;22.38;;
26742;SDS011;14341;51.256;22.478;2022-12-11T08:43:22;42.10;;;23.08;;
26742;SDS011;14341;51.256;22.478;2022-12-11T08:46:27;45.05;;;24.90;;
26742;SDS011;14341;51.256;22.478;2022-12-11T08:49:32;43.70;;;23.15;;
26742;SDS011;14341;51.256;22.478;2022-12-11T08:52:35;40.30;;;23.15;;
26742;SDS011;14341;51.256;22.478;2022-12-11T08:55:41;39.75;;;23.33;;
26742;SDS011;14341;51.256;22.478;2022-12-11T08:58:45;39.50;;;22.40;;
26742;SDS011;14341;51.256;22.478;2022-12-11T09:01:50;45.45;;;24.17;;
26742;SDS011;14341;51.256;22.478;2022-12-11T09:04:57;41.60;;;23.85;;
26742;SDS011;14341;51.256;22.478;2022-12-11T09:08:09;43.05;;;23.15;;
26742;SDS011;14341;51.256;22.478;2022-12-11T09:11:14;41.53;;;23.67;;
26742;SDS011;14341;51.256;22.478;2022-12-11T09:14:20;41.38;;;23.30;;
26742;SDS011;14341;51.256;22.478;2022-12-11T09:17:23;40.63;;;22.45;;
26742;SDS011;14341;51.256;22.478;2022-12-11T09:20:27;37.60;;;21.67;;
26742;SDS011;14341;51.256;22.478;2022-12-11T09:23:30;41.65;;;21.73;;
26742;SDS011;14341;51.256;22.478;2022-12-11T09:26:35;45.15;;;23.95;;
26742;SDS011;14341;51.256;22.478;2022-12-11T09:29:39;40.95;;;22.98;;
26742;SDS011;14341;51.256;22.478;2022-12-11T09:32:43;36.60;;;21.40;;
26742;SDS011;14341;51.256;22.478;2022-12-11T09:35:55;39.03;;;22.92;;
26742;SDS011;14341;51.256;22.478;2022-12-11T09:38:59;37.83;;;21.30;;
26742;SDS011;14341;51.256;22.478;2022-12-11T09:42:06;39.75;;;23.63;;
26742;SDS011;14341;51.256;22.478;2022-12-11T09:45:15;34.90;;;21.30;;
26742;SDS011;14341;51.256;22.478;2022-12-11T09:48:20;36.10;;;21.63;;
26742;SDS011;14341;51.256;22.478;2022-12-11T09:51:27;39.03;;;21.95;;
26742;SDS011;14341;51.256;22.478;2022-12-11T09:54:39;34.42;;;20.58;;
26742;SDS011;14341;51.256;22.478;2022-12-11T09:57:49;36.88;;;21.42;;
26742;SDS011;14341;51.256;22.478;2022-12-11T10:01:01;39.35;;;21.58;;
26742;SDS011;14341;51.256;22.478;2022-12-11T10:04:18;35.05;;;21.83;;
26742;SDS011;14341;51.256;22.478;2022-12-11T10:07:32;37.95;;;21.98;;
26742;SDS011;14341;51.256;22.478;2022-12-11T10:10:40;40.97;;;24.53;;
26742;SDS011;14341;51.256;22.478;2022-12-11T10:13:48;34.60;;;21.20;;
26742;SDS011;14341;51.256;22.478;2022-12-11T10:17:01;38.35;;;21.40;;
26742;SDS011;14341;51.256;22.478;2022-12-11T10:20:14;35.75;;;21.13;;
26742;SDS011;14341;51.256;22.478;2022-12-11T10:23:26;41.08;;;23.05;;
26742;SDS011;14341;51.256;22.478;2022-12-11T10:26:36;40.78;;;22.70;;
26742;SDS011;14341;51.256;22.478;2022-12-11T10:29:42;42.33;;;23.67;;
26742;SDS011;14341;51.256;22.478;2022-12-11T10:32:49;41.63;;;23.20;;
26742;SDS011;14341;51.256;22.478;2022-12-11T10:35:55;38.17;;;22.35;;
26742;SDS011;14341;51.256;22.478;2022-12-11T10:38:59;37.40;;;22.58;;
26742;SDS011;14341;51.256;22.478;2022-12-11T10:42:08;37.42;;;20.90;;
26742;SDS011;14341;51.256;22.478;2022-12-11T10:45:20;45.85;;;23.55;;
26742;SDS011;14341;51.256;22.478;2022-12-11T10:48:24;44.20;;;24.67;;
26742;SDS011;14341;51.256;22.478;2022-12-11T10:51:32;45.25;;;23.90;;
26742;SDS011;14341;51.256;22.478;2022-12-11T10:54:38;39.55;;;24.50;;
26742;SDS011;14341;51.256;22.478;2022-12-11T10:57:43;41.58;;;23.55;;
26742;SDS011;14341;51.256;22.478;2022-12-11T11:01:03;40.38;;;23.98;;
26742;SDS011;14341;51.256;22.478;2022-12-11T11:04:13;44.75;;;25.08;;
26742;SDS011;14341;51.256;22.478;2022-12-11T11:07:21;43.50;;;24.20;;
26742;SDS011;14341;51.256;22.478;2022-12-11T11:10:28;42.85;;;24.95;;
26742;SDS011;14341;51.256;22.478;2022-12-11T11:13:31;40.00;;;22.33;;
26742;SDS011;14341;51.256;22.478;2022-12-11T11:16:37;45.58;;;23.13;;
26742;SDS011;14341;51.256;22.478;2022-12-11T11:19:44;38.22;;;20.20;;
26742;SDS011;14341;51.256;22.478;2022-12-11T11:22:49;43.38;;;25.60;;
26742;SDS011;14341;51.256;22.478;2022-12-11T11:25:55;42.35;;;24.20;;
26742;SDS011;14341;51.256;22.478;2022-12-11T11:29:00;40.83;;;23.38;;
26742;SDS011;14341;51.256;22.478;2022-12-11T11:32:13;44.40;;;25.40;;
26742;SDS011;14341;51.256;22.478;2022-12-11T11:35:20;47.85;;;25.95;;
26742;SDS011;14341;51.256;22.478;2022-12-11T11:38:27;58.05;;;30.48;;
26742;SDS011;14341;51.256;22.478;2022-12-11T11:41:34;50.40;;;26.77;;
26742;SDS011;14341;51.256;22.478;2022-12-11T11:44:46;53.67;;;29.08;;
26742;SDS011;14341;51.256;22.478;2022-12-11T11:48:01;53.83;;;29.27;;
26742;SDS011;14341;51.256;22.478;2022-12-11T11:51:13;59.60;;;30.20;;
26742;SDS011;14341;51.256;22.478;2022-12-11T11:54:22;56.42;;;29.48;;
26742;SDS011;14341;51.256;22.478;2022-12-11T11:57:31;58.63;;;29.73;;
26742;SDS011;14341;51.256;22.478;2022-12-11T12:00:39;57.08;;;28.52;;
26742;SDS011;14341;51.256;22.478;2022-12-11T12:03:44;54.47;;;29.20;;
26742;SDS011;14341;51.256;22.478;2022-12-11T12:06:58;58.08;;;30.55;;
26742;SDS011;14341;51.256;22.478;2022-12-11T12:10:20;62.97;;;31.07;;
26742;SDS011;14341;51.256;22.478;2022-12-11T12:16:57;63.05;;;32.28;;
26742;SDS011;14341;51.256;22.478;2022-12-11T12:20:12;68.57;;;35.70;;
26742;SDS011;14341;51.256;22.478;2022-12-11T12:23:29;58.60;;;31.08;;
26742;SDS011;14341;51.256;22.478;2022-12-11T12:26:43;61.88;;;33.63;;
26742;SDS011;14341;51.256;22.478;2022-12-11T12:29:55;63.22;;;33.15;;
26742;SDS011;14341;51.256;22.478;2022-12-11T12:33:09;60.58;;;30.98;;
26742;SDS011;14341;51.256;22.478;2022-12-11T12:36:29;63.28;;;31.05;;
26742;SDS011;14341;51.256;22.478;2022-12-11T12:39:43;58.53;;;30.75;;
26742;SDS011;14341;51.256;22.478;2022-12-11T12:42:55;58.45;;;29.52;;
26742;SDS011;14341;51.256;22.478;2022-12-11T12:46:09;50.55;;;28.27;;
26742;SDS011;14341;51.256;22.478;2022-12-11T12:49:36;52.35;;;28.52;;
26742;SDS011;14341;51.256;22.478;2022-12-11T12:52:43;64.88;;;32.78;;
26742;SDS011;14341;51.256;22.478;2022-12-11T12:55:48;54.30;;;29.85;;
26742;SDS011;14341;51.256;22.478;2022-12-11T12:58:52;57.88;;;30.70;;
26742;SDS011;14341;51.256;22.478;2022-12-11T13:01:56;58.67;;;29.33;;
26742;SDS011;14341;51.256;22.478;2022-12-11T13:05:02;66.53;;;33.58;;
26742;SDS011;14341;51.256;22.478;2022-12-11T13:08:24;56.63;;;29.52;;
26742;SDS011;14341;51.256;22.478;2022-12-11T13:11:32;49.75;;;27.40;;
26742;SDS011;14341;51.256;22.478;2022-12-11T13:14:57;54.97;;;27.95;;
26742;SDS011;14341;51.256;22.478;2022-12-11T13:18:02;53.13;;;28.02;;
26742;SDS011;14341;51.256;22.478;2022-12-11T13:21:23;60.72;;;27.80;;
26742;SDS011;14341;51.256;22.478;2022-12-11T13:24:31;47.30;;;25.75;;
26742;SDS011;14341;51.256;22.478;2022-12-11T13:27:36;48.88;;;26.10;;
26742;SDS011;14341;51.256;22.478;2022-12-11T13:30:41;46.80;;;25.88;;
26742;SDS011;14341;51.256;22.478;2022-12-11T13:33:46;48.65;;;25.10;;
26742;SDS011;14341;51.256;22.478;2022-12-11T13:36:52;48.50;;;25.98;;
26742;SDS011;14341;51.256;22.478;2022-12-11T13:39:59;60.85;;;30.33;;
26742;SDS011;14341;51.256;22.478;2022-12-11T13:43:08;53.60;;;27.73;;
26742;SDS011;14341;51.256;22.478;2022-12-11T13:46:20;65.85;;;32.63;;
26742;SDS011;14341;51.256;22.478;2022-12-11T13:49:27;53.58;;;27.95;;
26742;SDS011;14341;51.256;22.478;2022-12-11T13:52:35;46.80;;;25.33;;
26742;SDS011;14341;51.256;22.478;2022-12-11T13:55:40;45.20;;;25.30;;
26742;SDS011;14341;51.256;22.478;2022-12-11T13:58:44;42.15;;;23.08;;
26742;SDS011;14341;51.256;22.478;2022-12-11T14:01:48;41.35;;;23.70;;
26742;SDS011;14341;51.256;22.478;2022-12-11T14:04:52;44.33;;;23.98;;
26742;SDS011;14341;51.256;22.478;2022-12-11T14:08:00;43.58;;;24.38;;
26742;SDS011;14341;51.256;22.478;2022-12-11T14:11:12;43.08;;;23.88;;
26742;SDS011;14341;51.256;22.478;2022-12-11T14:14:23;40.22;;;23.00;;
26742;SDS011;14341;51.256;22.478;2022-12-11T14:17:31;40.90;;;23.60;;
26742;SDS011;14341;51.256;22.478;2022-12-11T14:20:36;41.60;;;23.20;;
26742;SDS011;14341;51.256;22.478;2022-12-11T14:23:40;45.13;;;24.88;;
26742;SDS011;14341;51.256;22.478;2022-12-11T14:26:55;44.92;;;24.90;;
26742;SDS011;14341;51.256;22.478;2022-12-11T14:30:08;41.40;;;23.70;;
26742;SDS011;14341;51.256;22.478;2022-12-11T14:33:13;40.97;;;23.92;;
26742;SDS011;14341;51.256;22.478;2022-12-11T14:36:18;46.35;;;23.30;;
26742;SDS011;14341;51.256;22.478;2022-12-11T14:39:25;42.25;;;24.10;;
26742;SDS011;14341;51.256;22.478;2022-12-11T14:42:34;45.35;;;25.52;;
26742;SDS011;14341;51.256;22.478;2022-12-11T14:45:43;45.90;;;25.30;;
26742;SDS011;14341;51.256;22.478;2022-12-11T14:48:49;50.78;;;27.85;;
26742;SDS011;14341;51.256;22.478;2022-12-11T14:52:01;59.08;;;30.55;;
26742;SDS011;14341;51.256;22.478;2022-12-11T14:55:06;49.33;;;26.50;;
26742;SDS011;14341;51.256;22.478;2022-12-11T14:58:16;48.78;;;27.20;;
26742;SDS011;14341;51.256;22.478;2022-12-11T15:01:26;56.90;;;32.40;;
26742;SDS011;14341;51.256;22.478;2022-12-11T15:04:31;46.60;;;24.77;;
26742;SDS011;14341;51.256;22.478;2022-12-11T15:07:35;60.08;;;27.73;;
26742;SDS011;14341;51.256;22.478;2022-12-11T15:10:40;49.47;;;25.30;;
26742;SDS011;14341;51.256;22.478;2022-12-11T15:13:57;64.72;;;31.10;;
26742;SDS011;14341;51.256;22.478;2022-12-11T15:17:11;63.25;;;33.33;;
26742;SDS011;14341;51.256;22.478;2022-12-11T15:20:20;53.55;;;29.65;;
26742;SDS011;14341;51.256;22.478;2022-12-11T15:23:26;68.22;;;31.95;;
26742;SDS011;14341;51.256;22.478;2022-12-11T15:26:33;67.53;;;33.00;;
26742;SDS011;14341;51.256;22.478;2022-12-11T15:29:42;67.75;;;34.05;;
26742;SDS011;14341;51.256;22.478;2022-12-11T15:32:48;73.93;;;35.47;;
26742;SDS011;14341;51.256;22.478;2022-12-11T15:35:53;71.32;;;35.17;;
26742;SDS011;14341;51.256;22.478;2022-12-11T15:38:59;68.68;;;34.33;;
26742;SDS011;14341;51.256;22.478;2022-12-11T15:42:03;58.75;;;32.15;;
26742;SDS011;14341;51.256;22.478;2022-12-11T15:45:14;57.95;;;30.27;;
26742;SDS011;14341;51.256;22.478;2022-12-11T15:48:18;70.93;;;30.55;;
26742;SDS011;14341;51.256;22.478;2022-12-11T15:51:22;68.15;;;33.45;;
26742;SDS011;14341;51.256;22.478;2022-12-11T15:54:29;71.45;;;31.67;;
26742;SDS011;14341;51.256;22.478;2022-12-11T15:57:32;62.85;;;32.10;;
26742;SDS011;14341;51.256;22.478;2022-12-11T16:00:37;188.82;;;114.53;;
26742;SDS011;14341;51.256;22.478;2022-12-11T16:03:41;76.18;;;42.78;;
26742;SDS011;14341;51.256;22.478;2022-12-11T16:06:44;62.50;;;32.30;;
26742;SDS011;14341;51.256;22.478;2022-12-11T16:09:48;74.43;;;35.35;;
26742;SDS011;14341;51.256;22.478;2022-12-11T16:12:51;79.60;;;37.17;;
26742;SDS011;14341;51.256;22.478;2022-12-11T16:16:01;92.20;;;40.47;;
26742;SDS011;14341;51.256;22.478;2022-12-11T16:19:06;80.35;;;37.15;;
26742;SDS011;14341;51.256;22.478;2022-12-11T16:22:09;72.07;;;32.97;;
26742;SDS011;14341;51.256;22.478;2022-12-11T16:25:13;86.32;;;36.25;;
26742;SDS011;14341;51.256;22.478;2022-12-11T16:28:17;71.57;;;35.38;;
26742;SDS011;14341;51.256;22.478;2022-12-11T16:31:23;62.72;;;31.67;;
26742;SDS011;14341;51.256;22.478;2022-12-11T16:34:27;60.58;;;33.55;;
26742;SDS011;14341;51.256;22.478;2022-12-11T16:37:30;62.20;;;32.83;;
26742;SDS011;14341;51.256;22.478;2022-12-11T16:40:33;72.82;;;33.25;;
26742;SDS011;14341;51.256;22.478;2022-12-11T16:43:37;70.00;;;34.67;;
26742;SDS011;14341;51.256;22.478;2022-12-11T16:46:41;71.53;;;31.38;;
26742;SDS011;14341;51.256;22.478;2022-12-11T16:49:45;63.47;;;31.63;;
26742;SDS011;14341;51.256;22.478;2022-12-11T16:52:49;66.07;;;32.15;;
26742;SDS011;14341;51.256;22.478;2022-12-11T16:55:53;63.67;;;32.75;;
26742;SDS011;14341;51.256;22.478;2022-12-11T16:58:56;68.07;;;33.50;;
26742;SDS011;14341;51.256;22.478;2022-12-11T17:02:01;63.55;;;32.22;;
26742;SDS011;14341;51.256;22.478;2022-12-11T17:05:05;66.80;;;34.95;;
26742;SDS011;14341;51.256;22.478;2022-12-11T17:08:09;68.10;;;36.15;;
26742;SDS011;14341;51.256;22.478;2022-12-11T17:11:14;70.40;;;36.97;;
26742;SDS011;14341;51.256;22.478;2022-12-11T17:14:19;58.65;;;33.03;;
26742;SDS011;14341;51.256;22.478;2022-12-11T17:17:24;61.42;;;33.10;;
26742;SDS011;14341;51.256;22.478;2022-12-11T17:20:29;64.30;;;36.33;;
26742;SDS011;14341;51.256;22.478;2022-12-11T17:23:34;67.43;;;37.60;;
26742;SDS011;14341;51.256;22.478;2022-12-11T17:26:38;77.40;;;38.45;;
26742;SDS011;14341;51.256;22.478;2022-12-11T17:29:41;68.63;;;35.60;;
26742;SDS011;14341;51.256;22.478;2022-12-11T17:32:47;65.97;;;34.38;;
26742;SDS011;14341;51.256;22.478;2022-12-11T17:35:50;68.10;;;35.65;;
26742;SDS011;14341;51.256;22.478;2022-12-11T17:38:54;54.88;;;29.70;;
26742;SDS011;14341;51.256;22.478;2022-12-11T17:41:59;65.40;;;35.47;;
26742;SDS011;14341;51.256;22.478;2022-12-11T17:45:03;81.18;;;35.55;;
26742;SDS011;14341;51.256;22.478;2022-12-11T17:48:09;61.28;;;31.45;;
26742;SDS011;14341;51.256;22.478;2022-12-11T17:51:17;47.05;;;24.33;;
26742;SDS011;14341;51.256;22.478;2022-12-11T17:54:25;69.03;;;32.10;;
26742;SDS011;14341;51.256;22.478;2022-12-11T17:57:29;71.60;;;34.28;;
26742;SDS011;14341;51.256;22.478;2022-12-11T18:00:33;66.45;;;35.33;;
26742;SDS011;14341;51.256;22.478;2022-12-11T18:03:39;56.17;;;30.35;;